createdAt,value
2018-09-11T00:04:05.064Z,16.81
2018-09-11T00:09:03.603Z,16.79
2018-09-11T00:14:00.983Z,16.73
2018-09-11T00:18:58.367Z,16.77
2018-09-11T00:23:55.746Z,16.82
2018-09-11T00:28:53.188Z,16.70
2018-09-11T00:33:50.560Z,16.71
2018-09-11T00:38:47.944Z,16.74
2018-09-11T00:43:45.350Z,16.77
2018-09-11T00:48:42.712Z,16.73
2018-09-11T00:53:40.100Z,16.89
2018-09-11T00:58:37.506Z,16.89
2018-09-11T01:03:34.896Z,16.65
2018-09-11T01:08:32.311Z,16.59
2018-09-11T01:13:29.707Z,16.65
2018-09-11T01:18:27.191Z,16.46
2018-09-11T01:23:24.623Z,16.45
2018-09-11T01:28:22.011Z,16.50
2018-09-11T01:33:19.400Z,16.51
2018-09-11T01:38:16.904Z,16.45
2018-09-11T01:43:14.284Z,16.57
2018-09-11T01:48:11.698Z,16.43
2018-09-11T01:53:09.088Z,16.54
2018-09-11T01:58:06.498Z,16.42
2018-09-11T02:03:03.967Z,16.26
2018-09-11T02:08:01.363Z,16.27
2018-09-11T02:12:58.786Z,16.24
2018-09-11T02:17:56.226Z,15.92
2018-09-11T02:22:53.611Z,15.84
2018-09-11T02:27:51.834Z,15.60
2018-09-11T02:32:49.211Z,15.74
2018-09-11T02:37:46.576Z,15.52
2018-09-11T02:42:43.999Z,15.59
2018-09-11T02:47:41.379Z,15.39
2018-09-11T02:52:38.971Z,15.26
2018-09-11T02:57:36.423Z,15.34
2018-09-11T03:02:33.785Z,15.18
2018-09-11T03:07:31.187Z,15.31
2018-09-11T03:12:28.571Z,15.14
2018-09-11T03:17:25.939Z,15.11
2018-09-11T03:22:23.359Z,15.07
2018-09-11T03:27:20.745Z,15.44
2018-09-11T03:32:18.131Z,15.42
2018-09-11T03:37:15.523Z,15.49
2018-09-11T03:42:12.947Z,15.41
2018-09-11T03:47:10.354Z,15.43
2018-09-11T03:52:07.847Z,15.50
2018-09-11T03:57:05.339Z,15.57
2018-09-11T04:02:02.791Z,15.68
2018-09-11T04:07:00.435Z,16.01
2018-09-11T04:11:57.811Z,15.87
2018-09-11T04:16:55.195Z,16.03
2018-09-11T04:21:52.567Z,15.72
2018-09-11T04:26:50.010Z,15.70
2018-09-11T04:31:47.450Z,15.77
2018-09-11T04:36:44.851Z,15.60
2018-09-11T04:41:42.297Z,15.41
2018-09-11T04:46:39.700Z,15.50
2018-09-11T04:51:37.079Z,15.40
2018-09-11T04:56:34.514Z,15.31
2018-09-11T05:01:31.919Z,15.42
2018-09-11T05:06:29.291Z,15.50
2018-09-11T05:11:26.826Z,15.54
2018-09-11T05:16:24.211Z,15.52
2018-09-11T05:21:21.615Z,15.55
2018-09-11T05:26:19.025Z,15.60
2018-09-11T05:31:16.942Z,15.56
2018-09-11T05:36:14.331Z,15.63
2018-09-11T05:41:11.711Z,15.60
2018-09-11T05:46:09.147Z,15.71
2018-09-11T05:51:06.674Z,16.37
2018-09-11T05:56:04.071Z,16.40
2018-09-11T06:01:01.476Z,16.19
2018-09-11T06:05:59.175Z,16.14
2018-09-11T06:10:56.595Z,16.33
2018-09-11T06:15:53.970Z,16.35
2018-09-11T06:20:51.360Z,16.60
2018-09-11T06:25:48.780Z,16.61
2018-09-11T06:30:46.142Z,16.80
2018-09-11T06:35:43.532Z,16.62
2018-09-11T06:40:40.926Z,17.12
2018-09-11T06:45:38.491Z,17.11
2018-09-11T06:50:35.887Z,17.29
2018-09-11T06:55:33.295Z,17.13
2018-09-11T07:00:30.924Z,17.29
2018-09-11T07:05:28.325Z,17.32
2018-09-11T07:10:26.064Z,17.45
2018-09-11T07:15:23.455Z,17.75
2018-09-11T07:20:21.091Z,17.79
2018-09-11T07:25:18.292Z,17.63
2018-09-11T07:30:15.777Z,17.80
2018-09-11T07:35:13.143Z,18.03
2018-09-11T07:40:11.612Z,18.12
2018-09-11T07:45:09.076Z,18.48
2018-09-11T07:50:06.593Z,18.12
2018-09-11T07:55:03.994Z,18.43
2018-09-11T08:00:01.412Z,18.46
2018-09-11T08:04:58.904Z,18.85
2018-09-11T08:09:57.350Z,18.73
2018-09-11T08:14:54.771Z,19.02
2018-09-11T08:19:52.243Z,18.98
2018-09-11T08:24:49.566Z,18.80
2018-09-11T08:29:46.969Z,19.29
2018-09-11T08:34:44.412Z,19.36
2018-09-11T08:39:51.003Z,20.27
2018-09-11T08:44:48.414Z,20.26
2018-09-11T08:49:45.840Z,20.70
2018-09-11T08:54:43.239Z,20.50
2018-09-11T08:59:40.651Z,21.05
2018-09-11T09:04:38.056Z,20.63
2018-09-11T09:09:37.402Z,20.43
2018-09-11T09:14:34.839Z,20.62
2018-09-11T09:19:32.233Z,20.59
2018-09-11T09:24:29.623Z,20.95
2018-09-11T09:29:27.023Z,21.37
2018-09-11T09:34:24.423Z,21.45
2018-09-11T09:39:38.518Z,20.93
2018-09-11T09:44:36.644Z,20.90
2018-09-11T09:49:34.051Z,21.50
2018-09-11T09:54:31.439Z,22.02
2018-09-11T09:59:28.831Z,21.38
2018-09-11T10:04:26.242Z,21.80
2018-09-11T10:09:34.726Z,21.70
2018-09-11T10:14:32.186Z,21.53
2018-09-11T10:19:29.575Z,21.76
2018-09-11T10:24:26.959Z,22.56
2018-09-11T10:29:24.332Z,22.96
2018-09-11T10:34:21.774Z,22.37
2018-09-11T10:39:32.026Z,22.00
2018-09-11T10:44:29.489Z,22.32
2018-09-11T10:49:26.898Z,22.75
2018-09-11T10:54:24.276Z,23.19
2018-09-11T10:59:21.661Z,22.72
2018-09-11T11:04:19.137Z,23.14
2018-09-11T11:09:18.210Z,23.06
2018-09-11T11:14:15.647Z,22.72
2018-09-11T11:19:13.030Z,23.17
2018-09-11T11:24:10.430Z,23.47
2018-09-11T11:29:07.855Z,23.19
2018-09-11T11:34:05.432Z,23.18
2018-09-11T11:39:07.912Z,23.92
2018-09-11T11:44:06.431Z,24.37
2018-09-11T11:49:04.108Z,23.63
2018-09-11T11:54:01.504Z,24.37
2018-09-11T11:58:58.992Z,24.03
2018-09-11T12:03:56.378Z,24.40
2018-09-11T12:08:53.803Z,24.20
2018-09-11T12:13:51.440Z,23.94
2018-09-11T12:18:48.816Z,24.57
2018-09-11T12:23:46.217Z,24.40
2018-09-11T12:28:47.543Z,24.37
2018-09-11T12:33:46.182Z,24.55
2018-09-11T12:38:44.926Z,24.91
2018-09-11T12:43:49.973Z,24.60
2018-09-11T12:48:49.154Z,25.17
2018-09-11T12:53:49.547Z,25.07
2018-09-11T12:58:48.358Z,25.65
2018-09-11T13:03:47.522Z,24.93
2018-09-11T13:08:48.004Z,25.36
2018-09-11T13:13:46.018Z,25.16
2018-09-11T13:18:44.325Z,25.25
2018-09-11T13:23:43.142Z,25.50
2018-09-11T13:28:40.598Z,25.24
2018-09-11T13:33:37.985Z,25.29
2018-09-11T13:38:35.384Z,25.29
2018-09-11T13:43:32.743Z,25.57
2018-09-11T13:48:30.134Z,25.07
2018-09-11T13:53:27.507Z,25.10
2018-09-11T13:58:24.910Z,25.32
2018-09-11T14:03:22.308Z,26.06
2018-09-11T14:08:19.718Z,25.37
2018-09-11T14:13:17.107Z,26.01
2018-09-11T14:18:14.503Z,25.33
2018-09-11T14:23:11.887Z,25.69
2018-09-11T14:28:09.263Z,26.25
2018-09-11T14:33:06.668Z,26.08
2018-09-11T14:38:04.116Z,26.37
2018-09-11T14:43:01.543Z,25.89
2018-09-11T14:47:58.999Z,26.07
2018-09-11T14:52:56.379Z,26.07
2018-09-11T14:57:53.775Z,26.11
2018-09-11T15:02:51.191Z,26.39
2018-09-11T15:07:48.621Z,26.06
2018-09-11T15:12:46.011Z,26.26
2018-09-11T15:17:43.386Z,25.73
2018-09-11T15:22:40.853Z,26.14
2018-09-11T15:27:38.194Z,26.03
2018-09-11T15:32:35.615Z,25.96
2018-09-11T15:37:33.023Z,25.72
2018-09-11T15:42:30.470Z,26.01
2018-09-11T15:47:27.859Z,25.68
2018-09-11T15:52:29.662Z,25.66
2018-09-11T15:57:28.303Z,25.81
2018-09-11T16:02:25.767Z,25.75
2018-09-11T16:07:23.366Z,25.85
2018-09-11T16:12:20.855Z,26.05
2018-09-11T16:17:18.274Z,26.12
2018-09-11T16:22:15.680Z,25.60
2018-09-11T16:27:13.072Z,25.62
2018-09-11T16:32:10.519Z,25.40
2018-09-11T16:37:07.942Z,25.06
2018-09-11T16:42:05.672Z,24.95
2018-09-11T16:47:03.084Z,24.96
2018-09-11T16:52:00.447Z,25.04
2018-09-11T16:56:57.846Z,24.92
2018-09-11T17:01:55.295Z,24.85
2018-09-11T17:06:52.687Z,24.71
2018-09-11T17:11:50.129Z,24.65
2018-09-11T17:16:48.326Z,24.59
2018-09-11T17:21:45.713Z,24.47
2018-09-11T17:26:43.117Z,24.39
2018-09-11T17:31:40.548Z,24.28
2018-09-11T17:36:39.437Z,24.24
2018-09-11T17:41:37.268Z,24.12
2018-09-11T17:46:34.818Z,24.04
2018-09-11T17:51:32.244Z,23.90
2018-09-11T17:56:29.707Z,23.83
2018-09-11T18:01:27.168Z,23.80
2018-09-11T18:06:24.571Z,23.50
2018-09-11T18:11:21.955Z,23.49
2018-09-11T18:16:19.378Z,23.26
2018-09-11T18:21:16.851Z,23.24
2018-09-11T18:26:14.303Z,23.17
2018-09-11T18:31:11.645Z,23.15
2018-09-11T18:36:09.040Z,22.85
2018-09-11T18:41:06.447Z,22.63
2018-09-11T18:46:03.851Z,22.99
2018-09-11T18:51:01.226Z,22.75
2018-09-11T18:55:58.600Z,22.86
2018-09-11T19:00:55.979Z,22.62
2018-09-11T19:05:53.368Z,23.00
2018-09-11T19:10:50.744Z,22.64
2018-09-11T19:15:48.174Z,22.40
2018-09-11T19:20:45.531Z,22.10
2018-09-11T19:25:42.905Z,21.91
2018-09-11T19:30:40.275Z,21.67
2018-09-11T19:35:37.647Z,21.54
2018-09-11T19:40:35.055Z,21.51
2018-09-11T19:45:32.430Z,21.54
2018-09-11T19:50:29.881Z,21.55
2018-09-11T19:55:27.246Z,21.59
2018-09-11T20:00:24.632Z,21.32
2018-09-11T20:05:21.995Z,21.24
2018-09-11T20:10:20.426Z,21.09
2018-09-11T20:15:17.802Z,20.88
2018-09-11T20:20:15.171Z,20.81
2018-09-11T20:25:12.621Z,20.88
2018-09-11T20:30:10.079Z,20.73
2018-09-11T20:35:07.555Z,20.70
2018-09-11T20:40:06.326Z,20.46
2018-09-11T20:45:03.793Z,20.21
2018-09-11T20:50:01.219Z,20.14
2018-09-11T20:54:58.618Z,20.05
2018-09-11T20:59:56.003Z,20.04
2018-09-11T21:04:53.383Z,20.00
2018-09-11T21:10:00.983Z,19.84
2018-09-11T21:14:58.423Z,19.82
2018-09-11T21:19:55.792Z,19.60
2018-09-11T21:24:53.167Z,19.56
2018-09-11T21:29:50.583Z,19.48
2018-09-11T21:34:47.971Z,19.38
2018-09-11T21:39:45.365Z,19.36
2018-09-11T21:44:42.740Z,19.31
2018-09-11T21:49:40.136Z,19.17
2018-09-11T21:54:37.554Z,19.02
2018-09-11T21:59:34.932Z,19.13
2018-09-11T22:04:32.311Z,18.93
2018-09-11T22:09:33.299Z,18.76
2018-09-11T22:14:30.704Z,18.60
2018-09-11T22:19:28.083Z,18.47
2018-09-11T22:24:25.463Z,18.33
2018-09-11T22:29:22.883Z,18.32
2018-09-11T22:34:20.283Z,18.21
2018-09-11T22:39:31.277Z,18.24
2018-09-11T22:44:28.813Z,18.25
2018-09-11T22:49:26.187Z,18.34
2018-09-11T22:54:23.566Z,18.65
2018-09-11T22:59:20.939Z,18.52
2018-09-11T23:04:18.312Z,19.06
2018-09-11T23:09:16.578Z,18.90
2018-09-11T23:14:14.168Z,19.46
2018-09-11T23:19:11.555Z,19.56
2018-09-11T23:24:08.935Z,19.44
2018-09-11T23:29:06.331Z,19.63
2018-09-11T23:34:03.735Z,19.49
2018-09-11T23:39:01.124Z,19.25
2018-09-11T23:43:58.567Z,19.06
2018-09-11T23:48:55.983Z,18.95
2018-09-11T23:53:53.383Z,18.90
2018-09-11T23:58:51.280Z,19.09
